createdAt,value
2018-01-25T06:26:26.121Z,0.1
2018-01-25T06:28:26.066Z,0.2
2018-01-25T06:29:25.831Z,0.3
2018-01-25T06:30:25.826Z,0.3
2018-01-25T06:31:26.059Z,0.4
2018-01-25T06:32:25.894Z,0.5
2018-01-25T06:34:25.836Z,0.7
2018-01-25T06:35:25.828Z,0.8
2018-01-25T06:36:26.128Z,1.0
2018-01-25T06:37:25.799Z,1.2
2018-01-25T06:38:25.797Z,1.4
2018-01-25T06:39:26.858Z,1.7
2018-01-25T06:40:25.804Z,1.9
2018-01-25T06:41:26.090Z,2.3
2018-01-25T06:42:25.857Z,2.7
2018-01-25T06:43:25.828Z,3.1
2018-01-25T06:44:25.834Z,3.7
2018-01-25T06:45:25.830Z,4.2
2018-01-25T06:46:26.033Z,4.9
2018-01-25T06:47:25.856Z,5.7
2018-01-25T06:48:25.831Z,6.6
2018-01-25T06:50:25.827Z,7.9
2018-01-25T06:51:26.278Z,9.5
2018-01-25T06:52:25.845Z,11.3
2018-01-25T06:53:25.812Z,13.1
2018-01-25T06:54:25.813Z,15.5
2018-01-25T06:55:25.819Z,17.7
2018-01-25T06:56:31.021Z,20.7
2018-01-25T06:57:25.847Z,23.5
2018-01-25T06:58:25.816Z,26.5
2018-01-25T06:59:25.818Z,29.8
2018-01-25T07:00:25.816Z,33.5
2018-01-25T07:01:26.025Z,37.9
2018-01-25T07:02:30.824Z,42.6
2018-01-25T07:03:25.816Z,47.4
2018-01-25T07:04:25.819Z,52.5
2018-01-25T07:05:25.820Z,59.6
2018-01-25T07:06:26.021Z,65.9
2018-01-25T07:07:25.854Z,73.4
2018-01-25T07:08:25.819Z,80.1
2018-01-25T07:09:25.819Z,90.8
2018-01-25T07:10:25.817Z,101.5
2018-01-25T07:11:26.028Z,115.5
2018-01-25T07:12:26.143Z,133.5
2018-01-25T07:13:25.786Z,153.3
2018-01-25T07:14:25.817Z,177.1
2018-01-25T07:15:25.822Z,203.4
2018-01-25T07:16:26.025Z,236.3
2018-01-25T07:17:25.851Z,269.9
2018-01-25T07:18:25.820Z,305.2
2018-01-25T07:19:30.823Z,343.8
2018-01-25T07:20:25.822Z,379.7
2018-01-25T07:21:31.027Z,425.0
2018-01-25T07:22:25.858Z,468.2
2018-01-25T07:23:25.790Z,523.7
2018-01-25T07:24:25.826Z,563.4
2018-01-25T07:25:25.828Z,612.8
2018-01-25T07:26:26.285Z,661.3
2018-01-25T07:27:25.855Z,701.5
2018-01-25T07:28:25.824Z,739.7
2018-01-25T07:29:25.825Z,782.3
2018-01-25T07:30:25.826Z,830.8
2018-01-25T07:31:26.035Z,867.8
2018-01-25T07:32:25.853Z,907.7
2018-01-25T07:33:25.826Z,960.0
2018-01-25T07:34:25.851Z,1007.7
2018-01-25T07:35:25.828Z,1060.1
2018-01-25T07:36:26.078Z,1118.7
2018-01-25T07:37:25.798Z,1183.6
2018-01-25T07:38:25.833Z,1245.6
2018-01-25T07:39:25.861Z,1313.6
2018-01-25T07:40:25.838Z,1393.7
2018-01-25T07:41:26.041Z,1469.9
2018-01-25T07:42:25.833Z,1562.0
2018-01-25T07:43:25.801Z,1645.6
2018-01-25T07:44:25.869Z,1724.2
2018-01-25T07:45:25.804Z,1796.6
2018-01-25T07:47:26.022Z,1894.4
2018-01-25T07:48:25.788Z,1999.3
2018-01-25T07:49:30.823Z,2101.7
2018-01-25T07:50:25.820Z,2203.1
2018-01-25T07:51:25.820Z,2306.9
2018-01-25T07:52:26.028Z,2405.6
2018-01-25T07:53:25.821Z,2533.9
2018-01-25T07:54:25.901Z,2647.9
2018-01-25T07:55:25.837Z,2799.2
2018-01-25T07:56:25.824Z,2911.3
2018-01-25T07:57:26.024Z,3017.4
2018-01-25T07:58:25.823Z,3133.2
2018-01-25T07:59:25.856Z,3233.5
2018-01-25T08:00:25.834Z,3438.5
2018-01-25T08:01:25.824Z,3594.3
2018-01-25T08:02:31.035Z,3717.8
2018-01-25T08:03:25.823Z,3875.5
2018-01-25T08:04:25.854Z,4016.5
2018-01-25T08:05:30.826Z,4167.8
2018-01-25T08:06:25.794Z,4364.4
2018-01-25T08:07:26.263Z,4502.0
2018-01-25T08:08:25.826Z,4627.5
2018-01-25T08:09:25.857Z,4780.4
2018-01-25T08:10:25.824Z,4942.3
2018-01-25T08:11:25.826Z,5138.3
2018-01-25T08:12:27.093Z,5372.9
2018-01-25T08:13:25.829Z,5530.3
2018-01-25T08:14:25.862Z,5716.1
2018-01-25T08:15:25.827Z,5766.8
2018-01-25T08:16:25.827Z,5863.1
2018-01-25T08:17:31.040Z,5955.3
2018-01-25T08:18:25.875Z,6027.5
2018-01-25T08:19:26.091Z,6141.9
2018-01-25T08:20:25.828Z,6233.1
2018-01-25T08:21:25.828Z,6314.4
2018-01-25T08:22:26.073Z,6478.1
2018-01-25T08:23:25.836Z,6597.9
2018-01-25T08:24:25.856Z,6692.0
2018-01-25T08:25:25.832Z,6722.7
2018-01-25T08:26:25.831Z,6767.2
2018-01-25T08:27:26.068Z,6745.1
2018-01-25T08:28:25.839Z,6734.9
2018-01-25T08:29:25.834Z,6808.7
2018-01-25T08:30:25.834Z,6980.0
2018-01-25T08:31:25.832Z,7177.3
2018-01-25T08:32:26.075Z,7340.3
2018-01-25T08:33:25.834Z,7398.0
2018-01-25T08:34:25.837Z,7510.8
2018-01-25T08:35:25.835Z,7653.1
2018-01-25T08:36:25.808Z,7784.6
2018-01-25T08:37:26.130Z,7970.9
2018-01-25T08:38:25.843Z,8137.3
2018-01-25T08:39:25.806Z,8343.9
2018-01-25T08:40:25.807Z,8660.9
2018-01-25T08:41:25.809Z,8916.1
2018-01-25T08:42:26.072Z,9156.0
2018-01-25T08:43:25.861Z,9457.9
2018-01-25T08:44:25.836Z,9704.3
2018-01-25T08:45:26.871Z,9891.7
2018-01-25T08:46:25.842Z,10115.0
2018-01-25T08:47:26.078Z,10332.3
2018-01-25T08:48:25.836Z,10538.9
2018-01-25T08:49:25.841Z,10837.7
2018-01-25T08:50:25.840Z,11086.3
2018-01-25T08:51:25.845Z,11408.9
2018-01-25T08:52:26.121Z,11563.3
2018-01-25T08:53:25.848Z,11801.6
2018-01-25T08:54:25.839Z,12127.5
2018-01-25T08:55:25.841Z,12362.4
2018-01-25T08:56:25.876Z,12588.1
2018-01-25T08:57:26.071Z,12802.4
2018-01-25T08:58:25.865Z,12967.1
2018-01-25T08:59:25.843Z,13032.8
2018-01-25T09:00:25.842Z,13133.3
2018-01-25T09:01:25.839Z,13219.8
2018-01-25T09:02:26.074Z,13375.7
2018-01-25T09:03:25.843Z,13792.9
2018-01-25T09:04:25.840Z,14056.3
2018-01-25T09:05:25.811Z,14250.5
2018-01-25T09:06:25.842Z,14426.5
2018-01-25T09:07:26.122Z,14544.7
2018-01-25T09:08:25.842Z,14653.7
2018-01-25T09:09:25.849Z,14631.5
2018-01-25T09:11:25.829Z,14598.5
2018-01-25T09:12:26.056Z,14506.9
2018-01-25T09:13:25.856Z,14494.9
2018-01-25T09:14:25.826Z,14689.7
2018-01-25T09:15:25.831Z,14877.7
2018-01-25T09:16:25.834Z,15274.1
2018-01-25T09:17:26.067Z,15644.6
2018-01-25T09:18:25.854Z,15887.5
2018-01-25T09:19:25.830Z,16121.1
2018-01-25T09:20:25.834Z,16329.1
2018-01-25T09:21:25.827Z,16622.2
2018-01-25T09:22:26.041Z,16811.5
2018-01-25T09:23:25.858Z,17431.5
2018-01-25T09:24:25.831Z,17803.7
2018-01-25T09:25:25.828Z,18193.3
2018-01-25T09:26:25.829Z,18687.1
2018-01-25T09:27:26.035Z,19231.3
2018-01-25T09:28:30.829Z,19633.5
2018-01-25T09:29:25.838Z,19901.1
2018-01-25T09:30:25.837Z,20486.9
2018-01-25T09:31:25.834Z,20817.7
2018-01-25T09:32:26.046Z,20882.8
2018-01-25T09:33:25.865Z,21044.1
2018-01-25T09:34:25.836Z,21221.4
2018-01-25T09:35:25.833Z,21341.3
2018-01-25T09:36:25.834Z,21630.9
2018-01-25T09:37:31.070Z,21920.1
2018-01-25T09:38:25.870Z,22099.5
2018-01-25T09:39:25.837Z,22445.1
2018-01-25T09:40:25.836Z,22561.3
2018-01-25T09:41:25.832Z,22481.4
2018-01-25T09:42:26.070Z,22331.7
2018-01-25T09:43:25.913Z,22189.6
2018-01-25T09:44:25.834Z,21972.3
2018-01-25T09:45:25.834Z,21682.1
2018-01-25T09:46:25.861Z,21561.5
2018-01-25T09:47:26.041Z,21868.1
2018-01-25T09:48:25.873Z,21884.1
2018-01-25T09:49:25.832Z,21541.3
2018-01-25T09:50:25.836Z,21779.9
2018-01-25T09:51:25.837Z,21788.0
2018-01-25T09:52:26.038Z,21579.1
2018-01-25T09:53:25.875Z,21394.6
2018-01-25T09:54:25.843Z,21212.8
2018-01-25T09:55:25.836Z,20999.7
2018-01-25T09:56:25.838Z,21349.5
2018-01-25T09:57:31.046Z,22026.0
2018-01-25T09:58:26.889Z,22601.7
2018-01-25T09:59:25.834Z,23326.6
2018-01-25T10:00:25.873Z,23847.6
2018-01-25T10:01:25.837Z,24461.9
2018-01-25T10:02:26.110Z,25176.5
2018-01-25T10:03:25.844Z,26258.8
2018-01-25T10:04:25.875Z,27509.9
2018-01-25T10:05:25.878Z,28388.8
2018-01-25T10:06:25.838Z,29277.4
2018-01-25T10:07:26.048Z,30357.2
2018-01-25T10:08:25.852Z,31017.1
2018-01-25T10:09:25.839Z,32039.0
2018-01-25T10:10:25.882Z,33130.5
2018-01-25T10:11:25.842Z,33751.4
2018-01-25T10:12:26.048Z,33935.1
2018-01-25T10:13:25.842Z,35023.1
2018-01-25T10:14:25.843Z,35958.9
2018-01-25T10:15:25.874Z,36694.9
2018-01-25T10:16:25.842Z,37329.8
2018-01-25T10:17:26.049Z,38092.8
2018-01-25T10:18:25.848Z,39005.1
2018-01-25T10:19:25.842Z,40005.5
2018-01-25T10:20:25.866Z,41052.7
2018-01-25T10:21:25.876Z,42246.5
2018-01-25T10:22:27.092Z,43380.1
2018-01-25T10:23:25.848Z,44624.8
2018-01-25T10:25:25.849Z,45728.6
2018-01-25T10:26:25.863Z,46637.3
2018-01-25T10:27:26.038Z,47618.1
2018-01-25T10:28:25.829Z,48840.9
2018-01-25T10:29:25.834Z,48796.9
2018-01-25T10:30:25.834Z,48848.2
2018-01-25T10:31:25.865Z,49803.8
2018-01-25T10:32:26.036Z,50505.2
2018-01-25T10:33:25.799Z,50541.7
2018-01-25T10:34:25.836Z,50490.2
2018-01-25T10:35:25.832Z,50526.1
2018-01-25T10:36:25.863Z,50623.1
2018-01-25T10:37:26.078Z,50377.7
2018-01-25T10:38:25.834Z,49679.2
2018-01-25T10:39:25.834Z,49157.3
2018-01-25T10:40:25.836Z,48534.2
2018-01-25T10:41:25.909Z,48396.4
2018-01-25T10:42:26.042Z,48400.2
2018-01-25T10:43:25.836Z,48306.7
2018-01-25T10:44:25.805Z,49176.2
2018-01-25T10:45:25.837Z,50215.5
2018-01-25T10:46:25.858Z,50695.3
2018-01-25T10:47:26.043Z,50619.2
2018-01-25T10:48:25.869Z,50593.4
2018-01-25T10:49:25.837Z,50862.7
2018-01-25T10:50:25.845Z,51286.5
2018-01-25T10:51:25.842Z,50991.6
2018-01-25T10:52:26.106Z,50994.3
2018-01-25T10:53:30.947Z,51503.5
2018-01-25T10:54:25.808Z,51760.3
2018-01-25T10:55:25.839Z,52558.9
2018-01-25T10:56:25.839Z,53775.1
2018-01-25T10:57:26.049Z,54791.1
2018-01-25T10:58:25.887Z,55891.5
2018-01-25T10:59:25.880Z,56358.9
2018-01-25T11:00:25.846Z,56012.7
2018-01-25T11:01:25.842Z,55508.3
2018-01-25T11:02:26.049Z,56181.7
2018-01-25T11:03:26.090Z,57331.9
2018-01-25T11:04:25.874Z,57641.9
2018-01-25T11:05:25.843Z,57381.2
2018-01-25T11:06:25.843Z,57629.0
2018-01-25T11:07:26.306Z,58331.3
2018-01-25T11:08:25.847Z,58986.8
2018-01-25T11:09:25.873Z,59742.3
2018-01-25T11:10:26.096Z,59491.5
2018-01-25T11:11:25.842Z,58126.9
2018-01-25T11:12:26.043Z,56839.4
2018-01-25T11:13:25.851Z,55522.6
2018-01-25T11:14:25.865Z,54970.6
2018-01-25T11:15:25.853Z,55289.7
2018-01-25T11:16:25.810Z,55206.5
2018-01-25T11:18:27.004Z,54267.6
2018-01-25T11:19:25.863Z,53119.9
2018-01-25T11:20:30.833Z,52610.1
2018-01-25T11:21:25.831Z,52412.1
2018-01-25T11:22:25.832Z,52145.1
2018-01-25T11:23:26.031Z,51811.2
2018-01-25T11:24:26.121Z,51671.3
2018-01-25T11:25:25.832Z,51057.3
2018-01-25T11:26:26.859Z,50434.7
2018-01-25T11:27:25.832Z,50577.9
2018-01-25T11:28:26.049Z,50844.4
2018-01-25T11:29:25.914Z,50896.9
2018-01-25T11:30:25.829Z,50220.5
2018-01-25T11:31:25.834Z,48849.7
2018-01-25T11:32:25.833Z,49036.7
2018-01-25T11:33:26.034Z,50326.3
2018-01-25T11:34:25.872Z,51551.9
2018-01-25T11:35:30.835Z,52536.9
2018-01-25T11:36:25.832Z,53070.2
2018-01-25T11:37:25.838Z,53466.2
2018-01-25T11:38:26.084Z,53828.7
2018-01-25T11:39:25.912Z,54181.1
2018-01-25T11:40:25.830Z,54946.1
2018-01-25T11:41:25.835Z,56169.7
2018-01-25T11:42:25.830Z,56976.5
2018-01-25T11:43:26.036Z,57550.9
2018-01-25T11:44:25.867Z,58362.6
2018-01-25T11:45:25.840Z,59319.7
2018-01-25T11:46:25.835Z,60956.9
2018-01-25T11:47:25.832Z,61732.9
2018-01-25T11:50:26.078Z,61759.4
2018-01-25T11:51:25.836Z,62179.5
2018-01-25T11:52:25.835Z,62750.7
2018-01-25T11:53:25.802Z,62937.0
2018-01-25T11:54:26.109Z,63035.7
2018-01-25T11:55:26.076Z,63272.7
2018-01-25T11:56:25.841Z,63449.8
2018-01-25T11:57:25.871Z,63864.3
2018-01-25T11:58:25.805Z,64155.5
2018-01-25T11:59:25.840Z,64608.1
2018-01-25T12:00:28.128Z,65129.0
2018-01-25T12:01:25.846Z,65379.6
2018-01-25T12:02:25.851Z,65293.6
2018-01-25T12:03:35.846Z,65157.5
2018-01-25T12:04:25.843Z,65153.9
2018-01-25T12:07:26.219Z,64906.3
2018-01-25T12:08:26.101Z,64363.5
2018-01-25T12:09:25.843Z,63866.9
2018-01-25T12:10:25.870Z,63255.5
2018-01-25T12:11:35.852Z,62415.2
2018-01-25T12:12:26.081Z,61865.3
2018-01-25T12:13:25.849Z,61687.3
2018-01-25T12:15:25.874Z,61687.3
2018-01-25T12:17:27.114Z,61773.3
2018-01-25T12:18:25.851Z,61909.4
2018-01-25T12:19:25.850Z,61913.0
2018-01-25T12:22:26.088Z,62160.6
2018-01-25T12:23:26.117Z,62703.4
2018-01-25T12:24:25.849Z,63200.0
2018-01-25T12:25:25.849Z,63811.3
2018-01-25T12:27:26.074Z,64651.7
2018-01-25T12:28:25.812Z,65201.6
2018-01-25T12:29:25.839Z,65535.0
2018-01-25T12:30:25.836Z,65535.0
2018-01-25T12:39:26.893Z,65441.8
2018-01-25T12:40:25.862Z,64888.2
2018-01-25T12:41:25.841Z,63891.7
2018-01-25T12:42:25.808Z,62837.3
2018-01-25T12:43:25.842Z,62493.0
2018-01-25T12:44:26.075Z,62120.5
2018-01-25T12:45:25.864Z,62094.5
2018-01-25T12:54:27.096Z,62187.7
2018-01-25T12:55:25.839Z,62330.7
2018-01-25T12:56:25.843Z,63327.2
2018-01-25T12:57:25.880Z,64381.5
2018-01-25T12:58:26.869Z,64725.9
2018-01-25T12:59:26.044Z,65098.4
2018-01-25T13:00:25.843Z,65124.3
2018-01-25T13:01:25.837Z,64829.6
2018-01-25T13:02:25.871Z,64041.9
2018-01-25T13:03:25.837Z,63371.3
2018-01-25T13:04:26.042Z,63053.3
2018-01-25T13:05:25.838Z,63020.3
2018-01-25T13:09:26.066Z,62839.3
2018-01-25T13:10:25.835Z,62910.1
2018-01-25T13:11:25.838Z,62283.9
2018-01-25T13:12:25.839Z,61619.1
2018-01-25T13:13:30.844Z,60585.0
2018-01-25T13:14:26.074Z,59499.7
2018-01-25T13:15:25.841Z,58554.3
2018-01-25T13:16:25.809Z,57825.5
2018-01-25T13:17:25.838Z,57655.6
2018-01-25T13:18:25.842Z,57274.0
2018-01-25T13:19:26.080Z,56469.7
2018-01-25T13:20:25.840Z,55075.9
2018-01-25T13:21:25.838Z,53208.3
2018-01-25T13:22:25.845Z,51347.2
2018-01-25T13:23:25.842Z,49429.2
2018-01-25T13:24:27.121Z,48306.1
2018-01-25T13:25:25.877Z,47831.3
2018-01-25T13:26:25.842Z,47863.2
2018-01-25T13:27:25.841Z,47965.3
2018-01-25T13:28:26.866Z,48327.2
2018-01-25T13:29:27.146Z,48713.5
2018-01-25T13:31:25.850Z,48905.8
2018-01-25T13:32:25.837Z,49321.9
2018-01-25T13:33:25.796Z,49383.5
2018-01-25T13:34:25.829Z,49213.5
2018-01-25T13:35:26.065Z,48881.3
2018-01-25T13:36:25.831Z,48576.5
2018-01-25T13:37:25.826Z,49060.3
2018-01-25T13:38:30.836Z,49680.4
2018-01-25T13:39:25.833Z,50119.2
2018-01-25T13:40:27.115Z,49907.0
2018-01-25T13:41:25.841Z,49123.9
2018-01-25T13:42:25.827Z,48077.2
2018-01-25T13:43:25.828Z,47115.9
2018-01-25T13:44:25.830Z,46494.8
2018-01-25T13:45:26.065Z,46044.4
2018-01-25T13:46:25.798Z,46396.7
2018-01-25T13:47:25.835Z,46125.3
2018-01-25T13:48:25.796Z,45599.3
2018-01-25T13:49:25.835Z,45191.8
2018-01-25T13:50:26.055Z,44652.3
2018-01-25T13:51:25.853Z,43988.1
2018-01-25T13:52:25.833Z,43108.6
2018-01-25T13:53:25.834Z,42277.7
2018-01-25T13:54:25.830Z,41948.1
2018-01-25T13:55:26.078Z,41841.0
2018-01-25T13:56:25.831Z,41767.7
2018-01-25T13:57:25.829Z,41568.4
2018-01-25T13:58:25.828Z,41218.2
2018-01-25T13:59:25.829Z,40386.7
2018-01-25T14:00:28.055Z,39013.0
2018-01-25T14:01:25.833Z,36841.5
2018-01-25T14:02:25.797Z,35284.1
2018-01-25T14:03:25.829Z,34293.3
2018-01-25T14:04:25.829Z,33569.8
2018-01-25T14:05:26.034Z,33135.1
2018-01-25T14:06:25.857Z,32743.9
2018-01-25T14:07:26.864Z,32182.1
2018-01-25T14:08:25.825Z,31387.9
2018-01-25T14:09:25.828Z,30744.9
2018-01-25T14:10:27.127Z,30138.7
2018-01-25T14:11:25.865Z,29582.2
2018-01-25T14:12:30.828Z,29719.5
2018-01-25T14:13:25.830Z,29610.3
2018-01-25T14:14:25.829Z,30098.0
2018-01-25T14:15:26.035Z,30916.4
2018-01-25T14:16:25.867Z,31461.9
2018-01-25T14:17:25.834Z,31528.9
2018-01-25T14:18:25.829Z,31414.9
2018-01-25T14:19:25.834Z,31227.3
2018-01-25T14:20:26.040Z,31357.8
2018-01-25T14:21:25.867Z,31849.4
2018-01-25T14:22:25.836Z,32629.4
2018-01-25T14:23:25.842Z,33782.3
2018-01-25T14:24:25.833Z,33858.2
2018-01-25T14:25:26.038Z,33395.8
2018-01-25T14:26:25.867Z,32703.7
2018-01-25T14:27:25.838Z,31396.9
2018-01-25T14:28:25.836Z,30303.7
2018-01-25T14:29:25.802Z,28997.3
2018-01-25T14:30:26.039Z,27884.9
2018-01-25T14:31:25.867Z,27275.0
2018-01-25T14:32:25.860Z,26885.3
2018-01-25T14:33:25.833Z,26597.0
2018-01-25T14:34:25.836Z,26340.1
2018-01-25T14:35:26.049Z,25661.3
2018-01-25T14:36:25.863Z,25103.4
2018-01-25T14:37:30.832Z,24153.1
2018-01-25T14:38:25.832Z,22858.7
2018-01-25T14:39:25.801Z,22303.8
2018-01-25T14:40:26.070Z,22088.4
2018-01-25T14:42:25.869Z,22013.1
2018-01-25T14:43:25.829Z,22000.1
2018-01-25T14:44:25.817Z,22060.8
2018-01-25T14:45:25.816Z,22013.1
2018-01-25T14:46:26.028Z,21773.1
2018-01-25T14:47:25.853Z,21279.9
2018-01-25T14:48:25.823Z,20846.4
2018-01-25T14:49:25.823Z,20426.3
2018-01-25T14:50:25.789Z,19924.9
2018-01-25T14:51:27.054Z,19643.3
2018-01-25T14:52:25.849Z,19179.7
2018-01-25T14:53:25.824Z,18834.3
2018-01-25T14:54:25.819Z,18527.0
2018-01-25T14:55:25.823Z,18116.7
2018-01-25T14:56:26.025Z,17634.4
2018-01-25T14:57:25.849Z,17361.9
2018-01-25T14:58:25.826Z,17125.1
2018-01-25T14:59:25.855Z,16813.1
2018-01-25T15:00:25.821Z,16410.3
2018-01-25T15:01:26.026Z,15965.0
2018-01-25T15:02:25.822Z,15500.5
2018-01-25T15:03:25.824Z,15156.0
2018-01-25T15:04:25.891Z,14927.0
2018-01-25T15:05:25.822Z,14758.9
2018-01-25T15:06:26.293Z,14535.1
2018-01-25T15:07:25.824Z,14296.7
2018-01-25T15:08:25.824Z,14078.8
2018-01-25T15:09:25.857Z,13887.7
2018-01-25T15:10:25.828Z,13726.9
2018-01-25T15:11:26.028Z,13567.5
2018-01-25T15:12:35.827Z,13238.2
2018-01-25T15:13:25.795Z,12880.5
2018-01-25T15:14:25.870Z,12574.4
2018-01-25T15:15:25.835Z,12313.0
2018-01-25T15:16:26.037Z,12135.9
2018-01-25T15:17:25.829Z,12018.9
2018-01-25T15:18:25.827Z,11806.9
2018-01-25T15:19:25.857Z,11501.1
2018-01-25T15:20:25.829Z,11190.7
2018-01-25T15:21:26.002Z,10880.9
2018-01-25T15:22:25.829Z,10614.2
2018-01-25T15:23:25.828Z,10325.1
2018-01-25T15:24:25.857Z,9958.4
2018-01-25T15:26:26.133Z,9535.3
2018-01-25T15:27:25.811Z,9131.5
2018-01-25T15:28:25.812Z,8757.1
2018-01-25T15:29:25.821Z,8390.9
2018-01-25T15:30:30.811Z,8019.4
2018-01-25T15:31:26.107Z,7650.8
2018-01-25T15:32:25.812Z,7304.2
2018-01-25T15:33:25.814Z,6979.3
2018-01-25T15:34:25.816Z,6666.7
2018-01-25T15:35:25.815Z,6349.3
2018-01-25T15:36:26.059Z,6019.9
2018-01-25T15:37:25.814Z,5684.6
2018-01-25T15:38:25.818Z,5359.0
2018-01-25T15:39:25.853Z,5041.4
2018-01-25T15:40:25.826Z,4736.2
2018-01-25T15:41:26.078Z,4473.9
2018-01-25T15:42:25.818Z,4227.9
2018-01-25T15:43:26.023Z,3987.9
2018-01-25T15:44:25.818Z,3750.0
2018-01-25T15:45:25.821Z,3524.1
2018-01-25T15:46:26.058Z,3307.1
2018-01-25T15:47:25.873Z,3083.5
2018-01-25T15:48:25.786Z,2861.3
2018-01-25T15:49:25.818Z,2655.5
2018-01-25T15:50:25.822Z,2467.3
2018-01-25T15:51:26.056Z,2290.7
2018-01-25T15:52:25.819Z,2127.8
2018-01-25T15:53:25.819Z,1979.3
2018-01-25T15:54:25.788Z,1842.4
2018-01-25T15:55:25.819Z,1711.7
2018-01-25T15:56:26.025Z,1584.8
2018-01-25T15:57:25.788Z,1463.5
2018-01-25T15:58:25.826Z,1349.2
2018-01-25T15:59:25.820Z,1240.4
2018-01-25T16:00:25.788Z,1137.3
2018-01-25T16:01:26.294Z,1039.7
2018-01-25T16:02:25.790Z,947.5
2018-01-25T16:03:25.854Z,860.8
2018-01-25T16:04:25.821Z,779.8
2018-01-25T16:05:25.819Z,704.5
2018-01-25T16:06:26.023Z,634.7
2018-01-25T16:07:25.821Z,569.7
2018-01-25T16:08:25.853Z,508.6
2018-01-25T16:09:25.827Z,452.1
2018-01-25T16:10:25.793Z,400.3
2018-01-25T16:11:26.031Z,353.3
2018-01-25T16:12:25.790Z,310.9
2018-01-25T16:13:25.855Z,272.7
2018-01-25T16:14:25.822Z,238.5
2018-01-25T16:15:25.821Z,207.8
2018-01-25T16:16:26.027Z,180.5
2018-01-25T16:17:25.824Z,156.3
2018-01-25T16:18:25.854Z,134.8
2018-01-25T16:19:25.823Z,115.9
2018-01-25T16:20:25.825Z,99.4
2018-01-25T16:21:26.027Z,85.2
2018-01-25T16:22:25.821Z,72.9
2018-01-25T16:23:25.855Z,62.3
2018-01-25T16:24:25.822Z,53.0
2018-01-25T16:25:25.822Z,45.0
2018-01-25T16:26:26.027Z,38.1
2018-01-25T16:27:25.826Z,32.1
2018-01-25T16:28:25.853Z,27.1
2018-01-25T16:29:25.824Z,22.9
2018-01-25T16:30:25.832Z,19.3
2018-01-25T16:31:26.030Z,16.4
2018-01-25T16:32:25.822Z,14.0
2018-01-25T16:33:25.855Z,12.0
2018-01-25T16:34:25.793Z,10.3
2018-01-25T16:35:25.824Z,8.8
2018-01-25T16:36:26.031Z,7.5
2018-01-25T16:37:25.832Z,6.3
2018-01-25T16:38:25.869Z,5.2
2018-01-25T16:39:25.826Z,4.3
2018-01-25T16:40:25.827Z,3.6
2018-01-25T16:41:26.085Z,3.1
2018-01-25T16:42:25.828Z,2.7
2018-01-25T16:43:25.826Z,2.3
2018-01-25T16:44:25.828Z,2.1
2018-01-25T16:45:25.832Z,1.9
2018-01-25T16:46:26.059Z,1.7
2018-01-25T16:48:25.813Z,1.4
2018-01-25T16:49:25.811Z,1.2
2018-01-25T16:50:25.816Z,1.0
2018-01-25T16:51:25.851Z,0.9
2018-01-25T16:52:26.029Z,0.7
2018-01-25T16:53:25.821Z,0.6
2018-01-25T16:54:25.816Z,0.5
2018-01-25T16:56:25.932Z,0.4
2018-01-25T16:57:26.027Z,0.3
2018-01-25T16:59:25.816Z,0.2
2018-01-25T17:00:25.786Z,0.1
